sensor_id;sensor_type;location;lat;lon;timestamp;pressure;altitude;pressure_sealevel;temperature;humidity
69622;BME280;56841;55.964;37.674;2023-01-26T00:01:59;100140.47;;;-2.49;82.21
69622;BME280;56841;55.964;37.674;2023-01-26T00:04:25;100148.03;;;-2.46;82.17
69622;BME280;56841;55.964;37.674;2023-01-26T00:06:51;100145.19;;;-2.40;82.40
69622;BME280;56841;55.964;37.674;2023-01-26T00:09:17;100138.44;;;-2.43;81.95
69622;BME280;56841;55.964;37.674;2023-01-26T00:11:43;100139.88;;;-2.37;81.71
69622;BME280;56841;55.964;37.674;2023-01-26T00:14:08;100146.88;;;-2.39;81.62
69622;BME280;56841;55.964;37.674;2023-01-26T00:16:34;100139.31;;;-2.44;81.91
69622;BME280;56841;55.964;37.674;2023-01-26T00:19:00;100150.56;;;-2.45;82.17
69622;BME280;56841;55.964;37.674;2023-01-26T00:21:26;100145.19;;;-2.40;81.71
69622;BME280;56841;55.964;37.674;2023-01-26T00:23:52;100148.34;;;-2.52;82.05
69622;BME280;56841;55.964;37.674;2023-01-26T00:26:20;100148.91;;;-2.46;81.87
69622;BME280;56841;55.964;37.674;2023-01-26T00:28:46;100137.78;;;-2.48;81.97
69622;BME280;56841;55.964;37.674;2023-01-26T00:31:13;100142.13;;;-2.48;82.21
69622;BME280;56841;55.964;37.674;2023-01-26T00:33:39;100151.91;;;-2.55;82.14
69622;BME280;56841;55.964;37.674;2023-01-26T00:36:08;100151.00;;;-2.54;82.21
69622;BME280;56841;55.964;37.674;2023-01-26T00:38:33;100139.53;;;-2.48;82.10
69622;BME280;56841;55.964;37.674;2023-01-26T00:41:00;100141.28;;;-2.49;82.02
69622;BME280;56841;55.964;37.674;2023-01-26T00:43:25;100151.00;;;-2.54;82.36
69622;BME280;56841;55.964;37.674;2023-01-26T00:45:51;100140.59;;;-2.52;82.28
69622;BME280;56841;55.964;37.674;2023-01-26T00:48:18;100134.44;;;-2.50;82.32
69622;BME280;56841;55.964;37.674;2023-01-26T00:50:44;100145.41;;;-2.45;82.16
69622;BME280;56841;55.964;37.674;2023-01-26T00:53:10;100142.34;;;-2.53;82.36
69622;BME280;56841;55.964;37.674;2023-01-26T00:55:35;100135.75;;;-2.60;82.57
69622;BME280;56841;55.964;37.674;2023-01-26T00:58:05;100131.38;;;-2.58;82.27
69622;BME280;56841;55.964;37.674;2023-01-26T01:00:33;100129.97;;;-2.65;82.98
69622;BME280;56841;55.964;37.674;2023-01-26T01:02:59;100139.41;;;-2.64;83.43
69622;BME280;56841;55.964;37.674;2023-01-26T01:05:26;100134.47;;;-2.69;83.35
69622;BME280;56841;55.964;37.674;2023-01-26T01:07:53;100144.38;;;-2.59;83.01
69622;BME280;56841;55.964;37.674;2023-01-26T01:10:19;100144.22;;;-2.56;83.17
69622;BME280;56841;55.964;37.674;2023-01-26T01:12:45;100145.22;;;-2.59;83.26
69622;BME280;56841;55.964;37.674;2023-01-26T01:15:11;100135.84;;;-2.62;83.75
69622;BME280;56841;55.964;37.674;2023-01-26T01:17:38;100136.63;;;-2.59;83.80
69622;BME280;56841;55.964;37.674;2023-01-26T01:20:05;100127.53;;;-2.68;83.92
69622;BME280;56841;55.964;37.674;2023-01-26T01:22:32;100135.06;;;-2.64;84.24
69622;BME280;56841;55.964;37.674;2023-01-26T01:24:58;100138.09;;;-2.73;84.30
69622;BME280;56841;55.964;37.674;2023-01-26T01:27:23;100132.16;;;-2.75;84.29
69622;BME280;56841;55.964;37.674;2023-01-26T01:29:51;100142.06;;;-2.84;84.31
69622;BME280;56841;55.964;37.674;2023-01-26T01:32:17;100144.03;;;-2.90;84.51
69622;BME280;56841;55.964;37.674;2023-01-26T01:34:48;100142.56;;;-2.76;84.52
69622;BME280;56841;55.964;37.674;2023-01-26T01:37:15;100143.00;;;-2.86;84.61
69622;BME280;56841;55.964;37.674;2023-01-26T01:39:41;100151.66;;;-2.87;84.83
69622;BME280;56841;55.964;37.674;2023-01-26T01:42:06;100132.66;;;-2.86;84.68
69622;BME280;56841;55.964;37.674;2023-01-26T01:44:36;100135.94;;;-2.82;84.30
69622;BME280;56841;55.964;37.674;2023-01-26T01:47:06;100123.41;;;-2.91;84.79
69622;BME280;56841;55.964;37.674;2023-01-26T01:49:54;100128.66;;;-2.93;85.11
69622;BME280;56841;55.964;37.674;2023-01-26T01:52:28;100129.28;;;-2.88;84.86
69622;BME280;56841;55.964;37.674;2023-01-26T01:55:05;100116.59;;;-2.92;85.17
69622;BME280;56841;55.964;37.674;2023-01-26T01:57:36;100111.41;;;-2.92;85.57
69622;BME280;56841;55.964;37.674;2023-01-26T02:00:15;100115.63;;;-2.90;85.45
69622;BME280;56841;55.964;37.674;2023-01-26T02:02:45;100119.81;;;-2.87;85.21
69622;BME280;56841;55.964;37.674;2023-01-26T02:06:25;100105.75;;;-2.81;85.33
69622;BME280;56841;55.964;37.674;2023-01-26T02:08:29;100102.09;;;-2.77;85.19
69622;BME280;56841;55.964;37.674;2023-01-26T02:10:58;100105.34;;;-2.72;85.42
69622;BME280;56841;55.964;37.674;2023-01-26T02:13:27;100099.47;;;-2.76;85.21
69622;BME280;56841;55.964;37.674;2023-01-26T02:15:54;100109.81;;;-2.76;85.58
69622;BME280;56841;55.964;37.674;2023-01-26T02:18:20;100096.53;;;-2.68;85.19
69622;BME280;56841;55.964;37.674;2023-01-26T02:20:49;100095.00;;;-2.72;85.59
69622;BME280;56841;55.964;37.674;2023-01-26T02:23:41;100103.50;;;-2.70;84.95
69622;BME280;56841;55.964;37.674;2023-01-26T02:26:13;100096.53;;;-2.68;85.27
69622;BME280;56841;55.964;37.674;2023-01-26T02:28:41;100098.31;;;-2.70;85.26
69622;BME280;56841;55.964;37.674;2023-01-26T02:31:09;100085.41;;;-2.70;85.31
69622;BME280;56841;55.964;37.674;2023-01-26T02:33:36;100092.41;;;-2.72;85.23
69622;BME280;56841;55.964;37.674;2023-01-26T02:36:04;100083.81;;;-2.73;85.39
69622;BME280;56841;55.964;37.674;2023-01-26T02:38:41;100082.06;;;-2.72;85.44
69622;BME280;56841;55.964;37.674;2023-01-26T02:41:11;100069.00;;;-2.69;85.19
69622;BME280;56841;55.964;37.674;2023-01-26T02:43:38;100068.22;;;-2.71;85.66
69622;BME280;56841;55.964;37.674;2023-01-26T02:46:05;100072.69;;;-2.75;85.30
69622;BME280;56841;55.964;37.674;2023-01-26T02:48:35;100066.78;;;-2.77;85.53
69622;BME280;56841;55.964;37.674;2023-01-26T02:51:20;100054.31;;;-2.69;85.27
69622;BME280;56841;55.964;37.674;2023-01-26T02:53:46;100066.47;;;-2.71;85.64
69622;BME280;56841;55.964;37.674;2023-01-26T02:56:12;100070.06;;;-2.73;85.73
69622;BME280;56841;55.964;37.674;2023-01-26T02:58:38;100067.75;;;-2.79;85.98
69622;BME280;56841;55.964;37.674;2023-01-26T03:01:04;100068.47;;;-2.76;85.67
69622;BME280;56841;55.964;37.674;2023-01-26T03:03:29;100064.91;;;-2.73;85.60
69622;BME280;56841;55.964;37.674;2023-01-26T03:06:08;100060.56;;;-2.73;85.62
69622;BME280;56841;55.964;37.674;2023-01-26T03:08:35;100062.50;;;-2.78;86.13
69622;BME280;56841;55.964;37.674;2023-01-26T03:11:00;100066.84;;;-2.78;85.61
69622;BME280;56841;55.964;37.674;2023-01-26T03:13:26;100056.66;;;-2.81;85.95
69622;BME280;56841;55.964;37.674;2023-01-26T03:15:52;100059.91;;;-2.78;86.07
69622;BME280;56841;55.964;37.674;2023-01-26T03:18:21;100059.91;;;-2.78;86.23
69622;BME280;56841;55.964;37.674;2023-01-26T03:21:11;100064.91;;;-2.73;85.61
69622;BME280;56841;55.964;37.674;2023-01-26T03:23:56;100067.47;;;-2.73;85.73
69622;BME280;56841;55.964;37.674;2023-01-26T03:26:41;100057.13;;;-2.73;85.79
69622;BME280;56841;55.964;37.674;2023-01-26T03:29:27;100061.84;;;-2.64;85.11
69622;BME280;56841;55.964;37.674;2023-01-26T03:31:55;100059.63;;;-2.72;85.31
69622;BME280;56841;55.964;37.674;2023-01-26T03:34:24;100052.66;;;-2.70;85.55
69622;BME280;56841;55.964;37.674;2023-01-26T03:36:50;100055.44;;;-2.74;85.44
69622;BME280;56841;55.964;37.674;2023-01-26T03:39:18;100050.81;;;-2.68;85.33
69622;BME280;56841;55.964;37.674;2023-01-26T03:42:05;100056.97;;;-2.70;85.29
69622;BME280;56841;55.964;37.674;2023-01-26T03:44:50;100056.97;;;-2.70;85.28
69622;BME280;56841;55.964;37.674;2023-01-26T03:47:36;100059.56;;;-2.70;85.38
69622;BME280;56841;55.964;37.674;2023-01-26T03:50:22;100065.50;;;-2.68;84.96
69622;BME280;56841;55.964;37.674;2023-01-26T03:53:23;100067.66;;;-2.59;84.73
69622;BME280;56841;55.964;37.674;2023-01-26T03:56:10;100050.53;;;-2.62;84.65
69622;BME280;56841;55.964;37.674;2023-01-26T03:58:54;100059.50;;;-2.69;84.40
69622;BME280;56841;55.964;37.674;2023-01-26T04:01:24;100061.66;;;-2.59;84.86
69622;BME280;56841;55.964;37.674;2023-01-26T04:03:55;100059.75;;;-2.56;84.38
69622;BME280;56841;55.964;37.674;2023-01-26T04:06:45;100063.69;;;-2.66;84.68
69622;BME280;56841;55.964;37.674;2023-01-26T04:09:31;100065.13;;;-2.60;84.62
69622;BME280;56841;55.964;37.674;2023-01-26T04:11:57;100060.19;;;-2.65;85.10
69622;BME280;56841;55.964;37.674;2023-01-26T04:14:23;100073.13;;;-2.65;85.00
69622;BME280;56841;55.964;37.674;2023-01-26T04:17:08;100064.38;;;-2.63;85.12
69622;BME280;56841;55.964;37.674;2023-01-26T04:19:52;100071.22;;;-2.62;84.79
69622;BME280;56841;55.964;37.674;2023-01-26T04:22:40;100066.88;;;-2.61;85.04
69622;BME280;56841;55.964;37.674;2023-01-26T04:25:18;100067.84;;;-2.64;85.16
69622;BME280;56841;55.964;37.674;2023-01-26T04:27:44;100066.13;;;-2.63;84.87
69622;BME280;56841;55.964;37.674;2023-01-26T04:30:12;100059.22;;;-2.63;84.84
69622;BME280;56841;55.964;37.674;2023-01-26T04:32:39;100062.50;;;-2.59;84.89
69622;BME280;56841;55.964;37.674;2023-01-26T04:35:07;100051.91;;;-2.54;85.11
69622;BME280;56841;55.964;37.674;2023-01-26T04:37:34;100055.47;;;-2.57;84.93
69622;BME280;56841;55.964;37.674;2023-01-26T04:40:00;100073.00;;;-2.45;84.64
69622;BME280;56841;55.964;37.674;2023-01-26T04:42:29;100073.44;;;-2.54;84.54
69622;BME280;56841;55.964;37.674;2023-01-26T04:44:57;100076.16;;;-2.57;84.60
69622;BME280;56841;55.964;37.674;2023-01-26T04:47:23;100062.50;;;-2.59;84.82
69622;BME280;56841;55.964;37.674;2023-01-26T04:49:49;100058.19;;;-2.60;85.07
69622;BME280;56841;55.964;37.674;2023-01-26T04:52:18;100046.13;;;-2.59;84.97
69622;BME280;56841;55.964;37.674;2023-01-26T04:54:43;100054.25;;;-2.50;84.61
69622;BME280;56841;55.964;37.674;2023-01-26T04:57:09;100044.84;;;-2.51;84.61
69622;BME280;56841;55.964;37.674;2023-01-26T04:59:37;100054.34;;;-2.51;84.95
69622;BME280;56841;55.964;37.674;2023-01-26T05:02:03;100054.22;;;-2.48;84.91
69622;BME280;56841;55.964;37.674;2023-01-26T05:04:29;100050.69;;;-2.47;84.62
69622;BME280;56841;55.964;37.674;2023-01-26T05:06:55;100047.28;;;-2.48;84.56
69622;BME280;56841;55.964;37.674;2023-01-26T05:09:24;100055.03;;;-2.48;84.03
69622;BME280;56841;55.964;37.674;2023-01-26T05:12:06;100043.03;;;-2.49;84.17
69622;BME280;56841;55.964;37.674;2023-01-26T05:15:15;100046.50;;;-2.50;83.92
69622;BME280;56841;55.964;37.674;2023-01-26T05:17:59;100056.84;;;-2.50;83.89
69622;BME280;56841;55.964;37.674;2023-01-26T05:20:36;100052.22;;;-2.43;83.82
69622;BME280;56841;55.964;37.674;2023-01-26T05:23:13;100055.50;;;-2.40;83.39
69622;BME280;56841;55.964;37.674;2023-01-26T05:26:02;100057.88;;;-2.35;83.73
69622;BME280;56841;55.964;37.674;2023-01-26T05:28:32;100053.91;;;-2.42;83.36
69622;BME280;56841;55.964;37.674;2023-01-26T05:30:58;100057.25;;;-2.40;83.19
69622;BME280;56841;55.964;37.674;2023-01-26T05:33:24;100056.66;;;-2.28;83.07
69622;BME280;56841;55.964;37.674;2023-01-26T05:35:51;100034.06;;;-2.42;82.84
69622;BME280;56841;55.964;37.674;2023-01-26T05:38:18;100052.69;;;-2.35;82.95
69622;BME280;56841;55.964;37.674;2023-01-26T05:40:44;100052.22;;;-2.43;82.76
69622;BME280;56841;55.964;37.674;2023-01-26T05:43:10;100055.81;;;-2.46;82.88
69622;BME280;56841;55.964;37.674;2023-01-26T05:45:57;100052.84;;;-2.38;82.90
69622;BME280;56841;55.964;37.674;2023-01-26T05:48:24;100051.19;;;-2.39;83.24
69622;BME280;56841;55.964;37.674;2023-01-26T05:50:51;100058.03;;;-2.38;82.98
69622;BME280;56841;55.964;37.674;2023-01-26T05:53:19;100055.81;;;-2.46;82.95
69622;BME280;56841;55.964;37.674;2023-01-26T05:55:46;100046.75;;;-2.37;82.90
69622;BME280;56841;55.964;37.674;2023-01-26T05:58:14;100045.25;;;-2.41;83.00
69622;BME280;56841;55.964;37.674;2023-01-26T06:00:39;100050.94;;;-2.34;82.78
69622;BME280;56841;55.964;37.674;2023-01-26T06:03:15;100038.06;;;-2.36;82.96
69622;BME280;56841;55.964;37.674;2023-01-26T06:05:42;100054.66;;;-2.40;82.95
69622;BME280;56841;55.964;37.674;2023-01-26T06:08:17;100044.25;;;-2.39;82.68
69622;BME280;56841;55.964;37.674;2023-01-26T06:10:58;100032.84;;;-2.34;82.88
69622;BME280;56841;55.964;37.674;2023-01-26T06:13:44;100031.63;;;-2.27;82.57
69622;BME280;56841;55.964;37.674;2023-01-26T06:16:22;100030.78;;;-2.28;82.57
69622;BME280;56841;55.964;37.674;2023-01-26T06:18:48;100028.06;;;-2.25;82.60
69622;BME280;56841;55.964;37.674;2023-01-26T06:21:14;100030.25;;;-2.17;82.19
69622;BME280;56841;55.964;37.674;2023-01-26T06:23:40;100031.19;;;-2.18;82.02
69622;BME280;56841;55.964;37.674;2023-01-26T06:26:06;100019.06;;;-2.18;82.18
69622;BME280;56841;55.964;37.674;2023-01-26T06:28:32;100018.16;;;-2.17;81.80
69622;BME280;56841;55.964;37.674;2023-01-26T06:30:59;100025.16;;;-2.19;81.79
69622;BME280;56841;55.964;37.674;2023-01-26T06:33:26;100019.06;;;-2.18;81.64
69622;BME280;56841;55.964;37.674;2023-01-26T06:35:52;100019.91;;;-2.17;81.62
69622;BME280;56841;55.964;37.674;2023-01-26T06:38:20;100015.41;;;-2.13;81.46
69622;BME280;56841;55.964;37.674;2023-01-26T06:40:45;100015.50;;;-2.15;81.44
69622;BME280;56841;55.964;37.674;2023-01-26T06:43:12;100018.16;;;-2.17;81.57
69622;BME280;56841;55.964;37.674;2023-01-26T06:45:39;100027.97;;;-2.06;81.29
69622;BME280;56841;55.964;37.674;2023-01-26T06:48:06;100023.09;;;-2.12;81.21
69622;BME280;56841;55.964;37.674;2023-01-26T06:50:32;100026.56;;;-1.96;81.01
69622;BME280;56841;55.964;37.674;2023-01-26T06:53:03;100030.91;;;-1.96;80.73
69622;BME280;56841;55.964;37.674;2023-01-26T06:55:51;100012.97;;;-1.99;81.08
69622;BME280;56841;55.964;37.674;2023-01-26T06:58:48;100017.31;;;-2.00;81.03
69622;BME280;56841;55.964;37.674;2023-01-26T07:01:36;100021.34;;;-1.94;80.65
69622;BME280;56841;55.964;37.674;2023-01-26T07:04:02;100014.81;;;-2.01;80.91
69622;BME280;56841;55.964;37.674;2023-01-26T07:06:28;100017.47;;;-2.03;80.72
69622;BME280;56841;55.964;37.674;2023-01-26T07:08:54;100017.47;;;-2.03;80.83
69622;BME280;56841;55.964;37.674;2023-01-26T07:11:19;100009.97;;;-1.92;80.89
69622;BME280;56841;55.964;37.674;2023-01-26T07:13:46;100004.56;;;-1.87;80.74
69622;BME280;56841;55.964;37.674;2023-01-26T07:16:13;100007.00;;;-1.84;80.65
69622;BME280;56841;55.964;37.674;2023-01-26T07:18:39;100012.09;;;-1.82;80.31
69622;BME280;56841;55.964;37.674;2023-01-26T07:21:10;100011.94;;;-1.79;80.41
69622;BME280;56841;55.964;37.674;2023-01-26T07:23:37;100020.13;;;-1.71;80.33
69622;BME280;56841;55.964;37.674;2023-01-26T07:26:03;100023.97;;;-1.78;80.02
69622;BME280;56841;55.964;37.674;2023-01-26T07:28:29;100019.53;;;-1.76;79.94
69622;BME280;56841;55.964;37.674;2023-01-26T07:31:03;100019.41;;;-1.73;79.94
69622;BME280;56841;55.964;37.674;2023-01-26T07:33:30;100020.53;;;-1.79;80.07
69622;BME280;56841;55.964;37.674;2023-01-26T07:35:57;100021.09;;;-1.89;80.33
69622;BME280;56841;55.964;37.674;2023-01-26T07:38:24;100024.88;;;-1.79;80.23
69622;BME280;56841;55.964;37.674;2023-01-26T07:40:50;100020.00;;;-1.85;80.52
69622;BME280;56841;55.964;37.674;2023-01-26T07:43:17;100016.28;;;-1.80;80.07
69622;BME280;56841;55.964;37.674;2023-01-26T07:45:48;100017.63;;;-1.73;80.16
69622;BME280;56841;55.964;37.674;2023-01-26T07:48:16;100013.13;;;-1.69;79.81
69622;BME280;56841;55.964;37.674;2023-01-26T07:50:43;100004.44;;;-1.68;79.42
69622;BME280;56841;55.964;37.674;2023-01-26T07:53:10;100010.44;;;-1.68;79.60
69622;BME280;56841;55.964;37.674;2023-01-26T07:55:37;100007.78;;;-1.66;79.10
69622;BME280;56841;55.964;37.674;2023-01-26T07:58:03;100016.91;;;-1.59;79.25
69622;BME280;56841;55.964;37.674;2023-01-26T08:00:28;100013.41;;;-1.58;79.38
69622;BME280;56841;55.964;37.674;2023-01-26T08:02:54;100002.38;;;-1.61;79.52
69622;BME280;56841;55.964;37.674;2023-01-26T08:05:20;100004.72;;;-1.57;79.10
69622;BME280;56841;55.964;37.674;2023-01-26T08:07:46;100009.31;;;-1.62;79.18
69622;BME280;56841;55.964;37.674;2023-01-26T08:10:12;100002.63;;;-1.66;79.53
69622;BME280;56841;55.964;37.674;2023-01-26T08:12:39;100009.06;;;-1.57;79.34
69622;BME280;56841;55.964;37.674;2023-01-26T08:15:05;100008.06;;;-1.55;79.33
69622;BME280;56841;55.964;37.674;2023-01-26T08:17:31;100008.31;;;-1.59;79.30
69622;BME280;56841;55.964;37.674;2023-01-26T08:20:00;100009.34;;;-1.46;79.23
69622;BME280;56841;55.964;37.674;2023-01-26T08:22:28;100006.97;;;-1.51;79.05
69622;BME280;56841;55.964;37.674;2023-01-26T08:24:53;99999.72;;;-1.44;78.85
69622;BME280;56841;55.964;37.674;2023-01-26T08:27:19;100006.06;;;-1.50;79.31
69622;BME280;56841;55.964;37.674;2023-01-26T08:29:45;100009.09;;;-1.41;79.17
69622;BME280;56841;55.964;37.674;2023-01-26T08:32:11;100006.91;;;-1.49;79.33
69622;BME280;56841;55.964;37.674;2023-01-26T08:34:36;99993.88;;;-1.48;79.41
69622;BME280;56841;55.964;37.674;2023-01-26T08:37:02;99997.06;;;-1.42;79.19
69622;BME280;56841;55.964;37.674;2023-01-26T08:39:28;99985.59;;;-1.38;79.50
69622;BME280;56841;55.964;37.674;2023-01-26T08:41:53;99976.91;;;-1.37;79.02
69622;BME280;56841;55.964;37.674;2023-01-26T08:44:20;99986.22;;;-1.33;79.21
69622;BME280;56841;55.964;37.674;2023-01-26T08:46:45;99983.53;;;-1.32;78.97
69622;BME280;56841;55.964;37.674;2023-01-26T08:49:11;99978.53;;;-1.19;78.46
69622;BME280;56841;55.964;37.674;2023-01-26T08:51:37;99986.22;;;-1.33;78.68
69622;BME280;56841;55.964;37.674;2023-01-26T08:54:06;99986.19;;;-1.17;78.44
69622;BME280;56841;55.964;37.674;2023-01-26T08:56:34;99977.84;;;-1.23;78.72
69622;BME280;56841;55.964;37.674;2023-01-26T08:59:00;99975.00;;;-1.18;78.54
69622;BME280;56841;55.964;37.674;2023-01-26T09:01:26;99986.38;;;-1.05;78.23
69622;BME280;56841;55.964;37.674;2023-01-26T09:03:52;99968.81;;;-1.15;78.49
69622;BME280;56841;55.964;37.674;2023-01-26T09:06:20;99981.34;;;-1.24;78.62
69622;BME280;56841;55.964;37.674;2023-01-26T09:08:46;99983.28;;;-1.11;78.64
69622;BME280;56841;55.964;37.674;2023-01-26T09:11:12;99980.09;;;-1.01;78.06
69622;BME280;56841;55.964;37.674;2023-01-26T09:13:38;99978.75;;;-1.08;78.26
69622;BME280;56841;55.964;37.674;2023-01-26T09:16:06;99980.41;;;-1.07;77.96
69622;BME280;56841;55.964;37.674;2023-01-26T09:18:32;99979.31;;;-1.03;77.81
69622;BME280;56841;55.964;37.674;2023-01-26T09:21:03;99980.50;;;-1.08;77.81
69622;BME280;56841;55.964;37.674;2023-01-26T09:23:30;99971.53;;;-1.03;77.96
69622;BME280;56841;55.964;37.674;2023-01-26T09:25:57;99970.97;;;-1.08;77.43
69622;BME280;56841;55.964;37.674;2023-01-26T09:28:23;99979.84;;;-1.12;77.96
69622;BME280;56841;55.964;37.674;2023-01-26T09:30:49;99978.91;;;-1.11;78.10
69622;BME280;56841;55.964;37.674;2023-01-26T09:33:14;99976.00;;;-1.05;78.05
69622;BME280;56841;55.964;37.674;2023-01-26T09:35:40;99972.81;;;-1.10;77.76
69622;BME280;56841;55.964;37.674;2023-01-26T09:38:06;99966.06;;;-1.12;78.17
69622;BME280;56841;55.964;37.674;2023-01-26T09:40:43;99965.91;;;-1.09;78.20
69622;BME280;56841;55.964;37.674;2023-01-26T09:43:30;99970.38;;;-0.97;77.95
69622;BME280;56841;55.964;37.674;2023-01-26T09:46:21;99971.31;;;-0.98;77.92
69622;BME280;56841;55.964;37.674;2023-01-26T09:49:09;99966.13;;;-0.98;77.53
69622;BME280;56841;55.964;37.674;2023-01-26T09:54:18;99978.34;;;-1.16;78.75
69622;BME280;56841;55.964;37.674;2023-01-26T09:56:48;99977.31;;;-1.13;79.61
69622;BME280;56841;55.964;37.674;2023-01-26T09:59:33;99983.69;;;-1.19;80.97
69622;BME280;56841;55.964;37.674;2023-01-26T10:05:13;99962.97;;;-1.35;82.96
69622;BME280;56841;55.964;37.674;2023-01-26T10:07:42;99955.78;;;-1.30;84.34
69622;BME280;56841;55.964;37.674;2023-01-26T10:10:19;99962.06;;;-1.50;85.89
69622;BME280;56841;55.964;37.674;2023-01-26T10:12:49;99956.03;;;-1.50;87.29
69622;BME280;56841;55.964;37.674;2023-01-26T10:17:53;99954.56;;;-1.72;90.71
69622;BME280;56841;55.964;37.674;2023-01-26T10:23:17;99944.47;;;-1.76;93.18
69622;BME280;56841;55.964;37.674;2023-01-26T10:25:46;99950.41;;;-1.74;94.16
69622;BME280;56841;55.964;37.674;2023-01-26T10:28:12;99951.41;;;-1.77;94.43
69622;BME280;56841;55.964;37.674;2023-01-26T10:30:40;99949.13;;;-1.83;95.05
69622;BME280;56841;55.964;37.674;2023-01-26T10:33:29;99943.63;;;-1.77;96.08
69622;BME280;56841;55.964;37.674;2023-01-26T10:35:55;99938.38;;;-1.75;95.65
69622;BME280;56841;55.964;37.674;2023-01-26T10:38:28;99940.22;;;-1.77;95.32
69622;BME280;56841;55.964;37.674;2023-01-26T10:41:05;99932.63;;;-1.80;94.81
69622;BME280;56841;55.964;37.674;2023-01-26T10:43:36;99919.50;;;-1.77;93.76
69622;BME280;56841;55.964;37.674;2023-01-26T10:46:05;99921.94;;;-1.74;93.25
69622;BME280;56841;55.964;37.674;2023-01-26T10:48:30;99914.59;;;-1.66;92.53
69622;BME280;56841;55.964;37.674;2023-01-26T10:51:15;99919.44;;;-1.60;92.25
69622;BME280;56841;55.964;37.674;2023-01-26T10:53:40;99918.50;;;-1.59;91.74
69622;BME280;56841;55.964;37.674;2023-01-26T10:56:12;99912.41;;;-1.58;91.43
69622;BME280;56841;55.964;37.674;2023-01-26T11:01:09;99901.00;;;-1.54;90.29
69622;BME280;56841;55.964;37.674;2023-01-26T11:03:38;99906.06;;;-1.52;89.67
69622;BME280;56841;55.964;37.674;2023-01-26T11:06:27;99900.72;;;-1.49;89.23
69622;BME280;56841;55.964;37.674;2023-01-26T11:08:53;99912.56;;;-1.45;89.24
69622;BME280;56841;55.964;37.674;2023-01-26T11:11:26;99896.97;;;-1.44;88.88
69622;BME280;56841;55.964;37.674;2023-01-26T11:14:15;99895.94;;;-1.41;88.94
69622;BME280;56841;55.964;37.674;2023-01-26T11:16:49;99888.09;;;-1.39;88.72
69622;BME280;56841;55.964;37.674;2023-01-26T11:22:18;99884.25;;;-1.32;87.62
69622;BME280;56841;55.964;37.674;2023-01-26T11:24:59;99872.13;;;-1.32;87.38
69622;BME280;56841;55.964;37.674;2023-01-26T11:59:24;99858.28;;;-1.16;85.32
69622;BME280;56841;55.964;37.674;2023-01-26T12:04:44;99857.28;;;-1.14;84.61
69622;BME280;56841;55.964;37.674;2023-01-26T12:10:17;99879.44;;;-1.08;84.73
69622;BME280;56841;55.964;37.674;2023-01-26T12:12:57;99880.38;;;-1.09;84.56
69622;BME280;56841;55.964;37.674;2023-01-26T12:15:30;99888.88;;;-1.07;84.66
69622;BME280;56841;55.964;37.674;2023-01-26T12:18:11;99891.91;;;-1.15;84.90
69622;BME280;56841;55.964;37.674;2023-01-26T12:20:49;99873.00;;;-1.17;86.00
69622;BME280;56841;55.964;37.674;2023-01-26T12:23:24;99883.81;;;-1.25;86.37
69622;BME280;56841;55.964;37.674;2023-01-26T12:25:55;99885.13;;;-1.17;86.94
69622;BME280;56841;55.964;37.674;2023-01-26T12:31:20;99883.38;;;-1.17;86.79
69622;BME280;56841;55.964;37.674;2023-01-26T12:33:52;99879.63;;;-1.27;87.26
69622;BME280;56841;55.964;37.674;2023-01-26T12:36:33;99882.81;;;-1.22;87.98
69622;BME280;56841;55.964;37.674;2023-01-26T12:47:20;99879.22;;;-1.20;88.46
69622;BME280;56841;55.964;37.674;2023-01-26T12:55:39;99881.53;;;-1.15;88.18
69622;BME280;56841;55.964;37.674;2023-01-26T12:58:17;99879.13;;;-1.18;88.09
69622;BME280;56841;55.964;37.674;2023-01-26T13:00:52;99873.19;;;-1.20;88.15
69622;BME280;56841;55.964;37.674;2023-01-26T13:03:25;99871.44;;;-1.20;88.10
69622;BME280;56841;55.964;37.674;2023-01-26T13:10:57;99880.41;;;-1.25;88.58
69622;BME280;56841;55.964;37.674;2023-01-26T13:16:30;99877.97;;;-1.28;89.66
69622;BME280;56841;55.964;37.674;2023-01-26T13:18:58;99874.72;;;-1.32;89.90
69622;BME280;56841;55.964;37.674;2023-01-26T13:21:44;99880.91;;;-1.34;90.37
69622;BME280;56841;55.964;37.674;2023-01-26T13:32:00;99890.38;;;-1.33;91.48
69622;BME280;56841;55.964;37.674;2023-01-26T13:34:38;99899.47;;;-1.42;91.57
69622;BME280;56841;55.964;37.674;2023-01-26T13:37:13;99893.03;;;-1.35;92.61
69622;BME280;56841;55.964;37.674;2023-01-26T13:39:44;99889.94;;;-1.41;93.44
69622;BME280;56841;55.964;37.674;2023-01-26T13:42:26;99892.75;;;-1.30;95.03
69622;BME280;56841;55.964;37.674;2023-01-26T13:45:18;99891.03;;;-1.30;96.54
69622;BME280;56841;55.964;37.674;2023-01-26T13:47:48;99884.69;;;-1.40;96.33
69622;BME280;56841;55.964;37.674;2023-01-26T13:50:35;99872.97;;;-1.31;97.45
69622;BME280;56841;55.964;37.674;2023-01-26T13:56:28;99877.09;;;-1.43;97.45
69622;BME280;56841;55.964;37.674;2023-01-26T13:59:15;99876.75;;;-1.53;96.07
69622;BME280;56841;55.964;37.674;2023-01-26T14:01:43;99887.19;;;-1.54;96.54
69622;BME280;56841;55.964;37.674;2023-01-26T14:04:22;99880.06;;;-1.51;98.09
69622;BME280;56841;55.964;37.674;2023-01-26T14:09:19;99877.47;;;-1.51;99.53
69622;BME280;56841;55.964;37.674;2023-01-26T14:11:53;99874.88;;;-1.51;100.00
69622;BME280;56841;55.964;37.674;2023-01-26T14:14:26;99876.16;;;-1.42;100.00
69622;BME280;56841;55.964;37.674;2023-01-26T14:16:53;99887.28;;;-1.40;100.00
69622;BME280;56841;55.964;37.674;2023-01-26T14:19:21;99877.97;;;-1.44;100.00
69622;BME280;56841;55.964;37.674;2023-01-26T14:24:34;99876.59;;;-1.50;100.00
69622;BME280;56841;55.964;37.674;2023-01-26T14:27:01;99873.56;;;-1.42;100.00
69622;BME280;56841;55.964;37.674;2023-01-26T14:29:29;99870.16;;;-1.42;100.00
69622;BME280;56841;55.964;37.674;2023-01-26T14:31:57;99870.38;;;-1.47;100.00
69622;BME280;56841;55.964;37.674;2023-01-26T14:34:27;99861.59;;;-1.45;100.00
69622;BME280;56841;55.964;37.674;2023-01-26T14:37:13;99864.78;;;-1.39;100.00
69622;BME280;56841;55.964;37.674;2023-01-26T14:39:40;99861.72;;;-1.46;100.00